Dallas, South Dakota
Current Conditions -  °F | °C
As of 4:53 AM on Friday 19 Dec 2014 (Local Time) from KICR Reporting Station
Clear Clear  
Wind Chill: 10°   Ceiling: Unl
Heat Index: 19°   Visibility: 10mi
Dew Point: 14°   Wind: 7mph
Humidity: 81%   Direction: 180°S
Pressure: 30.03"   Gusts: NA
Location:  43.24°N, 99.52°W
Report Text: KICR 191053Z AUTO 18006KT 10SM CLR M07/M10 A3003 RMK AO2 SLP196 T10721100
Loading
Personal Weather Stations






























Interactive Weather Map New forecast layout! Learn more

10-Day Weather Forecast

Advertisements
Track Severe Weather on mobile